Current Weather

Heathrow

London, United Kingdom (EGLL)

Report from: Tuesday, February 27, 2024 8:50 AM GMT
Current time: Tuesday, February 27, 2024 9:09 AM GMT

Nearby weather – Weather history – Daily summaries
Weather forecast

Temperature4.0°C (39.2°F)
Wind chill1.7°C (35.0°F)
Dew point2.0°C (35.6°F)
Winds 5 kts (2.6 m/s, 5.8 mph) West-Northwest (290°)
Visibility6.2 mi. (10 km)
Clouds Sky clear
Altimeter30.18 in.Hg (1022 mB)
Relative humidity87 %
Density altitude-1,525 ft. (-465 m)
Remarks Fully automated report
Corrected report
No clouds detected
No significant changes expected in the next two hours
Flight conditions Visual Meteorological Conditions
Raw dataCOR EGLL 270850Z AUTO 29005KT 9999 NCD 04/02 Q1022 NOSIG
An error has occurred. This application may no longer respond until reloaded. Reload 🗙